sensor_id;sensor_type;location;lat;lon;timestamp;P1;durP1;ratioP1;P2;durP2;ratioP2
11481;SDS011;5797;51.662;6.748;2023-04-01T00:00:09;5.23;;;1.40;;
11481;SDS011;5797;51.662;6.748;2023-04-01T00:02:39;3.60;;;1.40;;
11481;SDS011;5797;51.662;6.748;2023-04-01T00:05:07;2.53;;;1.50;;
11481;SDS011;5797;51.662;6.748;2023-04-01T00:07:37;3.00;;;1.13;;
11481;SDS011;5797;51.662;6.748;2023-04-01T00:10:05;1.97;;;1.33;;
11481;SDS011;5797;51.662;6.748;2023-04-01T00:12:35;5.47;;;1.43;;
11481;SDS011;5797;51.662;6.748;2023-04-01T00:15:06;6.90;;;1.63;;
11481;SDS011;5797;51.662;6.748;2023-04-01T00:17:36;3.23;;;1.47;;
11481;SDS011;5797;51.662;6.748;2023-04-01T00:20:05;1.73;;;1.23;;
11481;SDS011;5797;51.662;6.748;2023-04-01T00:22:35;3.63;;;1.97;;
11481;SDS011;5797;51.662;6.748;2023-04-01T00:25:03;2.60;;;1.40;;
11481;SDS011;5797;51.662;6.748;2023-04-01T00:27:32;4.70;;;1.60;;
11481;SDS011;5797;51.662;6.748;2023-04-01T00:30:00;3.53;;;1.57;;
11481;SDS011;5797;51.662;6.748;2023-04-01T00:32:30;3.93;;;1.40;;
11481;SDS011;5797;51.662;6.748;2023-04-01T00:34:58;1.47;;;1.30;;
11481;SDS011;5797;51.662;6.748;2023-04-01T00:37:27;4.27;;;1.77;;
11481;SDS011;5797;51.662;6.748;2023-04-01T00:39:56;3.13;;;1.60;;
11481;SDS011;5797;51.662;6.748;2023-04-01T00:42:24;2.83;;;1.77;;
11481;SDS011;5797;51.662;6.748;2023-04-01T00:44:53;2.53;;;1.40;;
11481;SDS011;5797;51.662;6.748;2023-04-01T00:47:22;5.70;;;1.80;;
11481;SDS011;5797;51.662;6.748;2023-04-01T00:49:53;3.60;;;1.67;;
11481;SDS011;5797;51.662;6.748;2023-04-01T00:52:23;3.50;;;1.80;;
11481;SDS011;5797;51.662;6.748;2023-04-01T00:54:54;3.87;;;1.37;;
11481;SDS011;5797;51.662;6.748;2023-04-01T00:57:25;2.90;;;1.63;;
11481;SDS011;5797;51.662;6.748;2023-04-01T00:59:57;2.67;;;1.30;;
11481;SDS011;5797;51.662;6.748;2023-04-01T01:02:26;2.17;;;1.37;;
11481;SDS011;5797;51.662;6.748;2023-04-01T01:04:55;3.63;;;1.47;;
11481;SDS011;5797;51.662;6.748;2023-04-01T01:07:26;5.03;;;1.57;;
11481;SDS011;5797;51.662;6.748;2023-04-01T01:09:58;2.13;;;1.57;;
11481;SDS011;5797;51.662;6.748;2023-04-01T01:12:31;4.93;;;1.30;;
11481;SDS011;5797;51.662;6.748;2023-04-01T01:15:06;3.57;;;1.40;;
11481;SDS011;5797;51.662;6.748;2023-04-01T01:17:40;2.37;;;1.40;;
11481;SDS011;5797;51.662;6.748;2023-04-01T01:20:24;3.90;;;1.17;;
11481;SDS011;5797;51.662;6.748;2023-04-01T01:26:15;2.93;;;1.17;;
11481;SDS011;5797;51.662;6.748;2023-04-01T01:28:58;2.20;;;0.90;;
11481;SDS011;5797;51.662;6.748;2023-04-01T01:31:32;1.43;;;1.10;;
11481;SDS011;5797;51.662;6.748;2023-04-01T01:34:04;3.27;;;1.30;;
11481;SDS011;5797;51.662;6.748;2023-04-01T01:36:40;1.40;;;1.13;;
11481;SDS011;5797;51.662;6.748;2023-04-01T01:39:11;2.37;;;1.43;;
11481;SDS011;5797;51.662;6.748;2023-04-01T01:41:41;2.63;;;1.40;;
11481;SDS011;5797;51.662;6.748;2023-04-01T01:44:11;1.83;;;1.30;;
11481;SDS011;5797;51.662;6.748;2023-04-01T01:46:40;1.73;;;1.37;;
11481;SDS011;5797;51.662;6.748;2023-04-01T01:49:09;1.47;;;1.37;;
11481;SDS011;5797;51.662;6.748;2023-04-01T01:51:38;1.67;;;1.30;;
11481;SDS011;5797;51.662;6.748;2023-04-01T01:54:12;4.03;;;1.40;;
11481;SDS011;5797;51.662;6.748;2023-04-01T01:56:42;1.50;;;1.20;;
11481;SDS011;5797;51.662;6.748;2023-04-01T01:59:13;2.43;;;1.60;;
11481;SDS011;5797;51.662;6.748;2023-04-01T02:01:45;1.60;;;1.37;;
11481;SDS011;5797;51.662;6.748;2023-04-01T02:04:16;1.63;;;1.50;;
11481;SDS011;5797;51.662;6.748;2023-04-01T02:06:47;1.30;;;1.20;;
11481;SDS011;5797;51.662;6.748;2023-04-01T02:09:22;2.70;;;1.40;;
11481;SDS011;5797;51.662;6.748;2023-04-01T02:11:51;3.00;;;1.30;;
11481;SDS011;5797;51.662;6.748;2023-04-01T02:14:21;2.03;;;1.40;;
11481;SDS011;5797;51.662;6.748;2023-04-01T02:16:53;3.23;;;1.37;;
11481;SDS011;5797;51.662;6.748;2023-04-01T02:19:24;8.40;;;1.70;;
11481;SDS011;5797;51.662;6.748;2023-04-01T02:21:57;2.77;;;1.60;;
11481;SDS011;5797;51.662;6.748;2023-04-01T02:24:27;1.50;;;1.40;;
11481;SDS011;5797;51.662;6.748;2023-04-01T02:26:56;1.73;;;1.43;;
11481;SDS011;5797;51.662;6.748;2023-04-01T02:29:25;3.73;;;1.47;;
11481;SDS011;5797;51.662;6.748;2023-04-01T02:31:53;2.20;;;1.30;;
11481;SDS011;5797;51.662;6.748;2023-04-01T02:34:23;3.27;;;1.40;;
11481;SDS011;5797;51.662;6.748;2023-04-01T02:36:52;1.20;;;1.10;;
11481;SDS011;5797;51.662;6.748;2023-04-01T02:39:21;3.27;;;0.93;;
11481;SDS011;5797;51.662;6.748;2023-04-01T02:41:51;2.83;;;1.30;;
11481;SDS011;5797;51.662;6.748;2023-04-01T02:44:19;1.80;;;0.90;;
11481;SDS011;5797;51.662;6.748;2023-04-01T02:46:48;4.07;;;1.10;;
11481;SDS011;5797;51.662;6.748;2023-04-01T02:49:16;1.47;;;1.07;;
11481;SDS011;5797;51.662;6.748;2023-04-01T02:51:45;3.50;;;1.40;;
11481;SDS011;5797;51.662;6.748;2023-04-01T02:54:13;2.43;;;1.40;;
11481;SDS011;5797;51.662;6.748;2023-04-01T02:56:43;1.07;;;1.00;;
11481;SDS011;5797;51.662;6.748;2023-04-01T02:59:13;0.93;;;0.90;;
11481;SDS011;5797;51.662;6.748;2023-04-01T03:01:42;2.03;;;1.40;;
11481;SDS011;5797;51.662;6.748;2023-04-01T03:04:10;2.53;;;1.20;;
11481;SDS011;5797;51.662;6.748;2023-04-01T03:06:38;2.07;;;1.07;;
11481;SDS011;5797;51.662;6.748;2023-04-01T03:09:07;0.83;;;0.80;;
11481;SDS011;5797;51.662;6.748;2023-04-01T03:11:35;1.03;;;0.93;;
11481;SDS011;5797;51.662;6.748;2023-04-01T03:14:04;4.90;;;0.97;;
11481;SDS011;5797;51.662;6.748;2023-04-01T03:16:34;1.30;;;1.00;;
11481;SDS011;5797;51.662;6.748;2023-04-01T03:19:02;2.10;;;1.17;;
11481;SDS011;5797;51.662;6.748;2023-04-01T03:21:31;1.63;;;1.10;;
11481;SDS011;5797;51.662;6.748;2023-04-01T03:24:00;1.77;;;1.00;;
11481;SDS011;5797;51.662;6.748;2023-04-01T03:26:29;1.37;;;0.90;;
11481;SDS011;5797;51.662;6.748;2023-04-01T03:28:57;1.00;;;0.90;;
11481;SDS011;5797;51.662;6.748;2023-04-01T03:31:26;1.60;;;1.10;;
11481;SDS011;5797;51.662;6.748;2023-04-01T03:33:57;1.20;;;1.10;;
11481;SDS011;5797;51.662;6.748;2023-04-01T03:36:27;1.47;;;1.20;;
11481;SDS011;5797;51.662;6.748;2023-04-01T03:38:55;1.30;;;1.10;;
11481;SDS011;5797;51.662;6.748;2023-04-01T03:41:34;1.30;;;1.10;;
11481;SDS011;5797;51.662;6.748;2023-04-01T03:44:03;2.30;;;1.47;;
11481;SDS011;5797;51.662;6.748;2023-04-01T03:46:32;1.63;;;1.37;;
11481;SDS011;5797;51.662;6.748;2023-04-01T03:49:01;1.20;;;1.00;;
11481;SDS011;5797;51.662;6.748;2023-04-01T03:51:30;2.43;;;1.50;;
11481;SDS011;5797;51.662;6.748;2023-04-01T03:53:58;4.47;;;1.63;;
11481;SDS011;5797;51.662;6.748;2023-04-01T03:56:26;2.70;;;1.60;;
11481;SDS011;5797;51.662;6.748;2023-04-01T03:58:55;2.00;;;1.70;;
11481;SDS011;5797;51.662;6.748;2023-04-01T04:01:23;3.17;;;1.97;;
11481;SDS011;5797;51.662;6.748;2023-04-01T04:03:54;3.97;;;2.20;;
11481;SDS011;5797;51.662;6.748;2023-04-01T04:06:24;3.90;;;2.20;;
11481;SDS011;5797;51.662;6.748;2023-04-01T04:08:53;1.90;;;1.37;;
11481;SDS011;5797;51.662;6.748;2023-04-01T04:11:21;2.47;;;1.83;;
11481;SDS011;5797;51.662;6.748;2023-04-01T04:13:52;2.57;;;1.83;;
11481;SDS011;5797;51.662;6.748;2023-04-01T04:16:21;2.20;;;1.73;;
11481;SDS011;5797;51.662;6.748;2023-04-01T04:18:56;3.97;;;2.10;;
11481;SDS011;5797;51.662;6.748;2023-04-01T04:21:26;3.37;;;2.10;;
11481;SDS011;5797;51.662;6.748;2023-04-01T04:23:54;5.27;;;2.60;;
11481;SDS011;5797;51.662;6.748;2023-04-01T04:26:23;3.50;;;2.27;;
11481;SDS011;5797;51.662;6.748;2023-04-01T04:28:59;6.03;;;2.87;;
11481;SDS011;5797;51.662;6.748;2023-04-01T04:31:27;6.50;;;3.07;;
11481;SDS011;5797;51.662;6.748;2023-04-01T04:33:58;5.70;;;3.10;;
11481;SDS011;5797;51.662;6.748;2023-04-01T04:36:28;7.93;;;3.10;;
11481;SDS011;5797;51.662;6.748;2023-04-01T04:38:57;5.30;;;3.63;;
11481;SDS011;5797;51.662;6.748;2023-04-01T04:41:28;8.33;;;3.97;;
11481;SDS011;5797;51.662;6.748;2023-04-01T04:43:57;8.53;;;3.23;;
11481;SDS011;5797;51.662;6.748;2023-04-01T04:46:26;5.63;;;3.73;;
11481;SDS011;5797;51.662;6.748;2023-04-01T04:49:01;10.60;;;4.77;;
11481;SDS011;5797;51.662;6.748;2023-04-01T04:51:31;7.37;;;3.90;;
11481;SDS011;5797;51.662;6.748;2023-04-01T04:54:00;6.67;;;3.57;;
11481;SDS011;5797;51.662;6.748;2023-04-01T04:56:42;6.13;;;3.10;;
11481;SDS011;5797;51.662;6.748;2023-04-01T04:59:10;3.70;;;2.63;;
11481;SDS011;5797;51.662;6.748;2023-04-01T05:01:49;5.30;;;3.23;;
11481;SDS011;5797;51.662;6.748;2023-04-01T05:04:17;6.43;;;3.40;;
11481;SDS011;5797;51.662;6.748;2023-04-01T05:06:47;5.50;;;3.17;;
11481;SDS011;5797;51.662;6.748;2023-04-01T05:09:17;6.63;;;3.10;;
11481;SDS011;5797;51.662;6.748;2023-04-01T05:11:45;5.77;;;3.60;;
11481;SDS011;5797;51.662;6.748;2023-04-01T05:14:13;4.77;;;3.40;;
11481;SDS011;5797;51.662;6.748;2023-04-01T05:16:48;4.67;;;3.10;;
11481;SDS011;5797;51.662;6.748;2023-04-01T05:19:17;4.50;;;3.00;;
11481;SDS011;5797;51.662;6.748;2023-04-01T05:21:45;5.67;;;3.57;;
11481;SDS011;5797;51.662;6.748;2023-04-01T05:24:16;4.93;;;3.23;;
11481;SDS011;5797;51.662;6.748;2023-04-01T05:26:44;4.23;;;2.93;;
11481;SDS011;5797;51.662;6.748;2023-04-01T05:29:12;4.67;;;3.47;;
11481;SDS011;5797;51.662;6.748;2023-04-01T05:31:43;6.53;;;3.87;;
11481;SDS011;5797;51.662;6.748;2023-04-01T05:34:11;8.40;;;5.33;;
11481;SDS011;5797;51.662;6.748;2023-04-01T05:36:41;5.60;;;3.60;;
11481;SDS011;5797;51.662;6.748;2023-04-01T05:39:09;7.63;;;4.77;;
11481;SDS011;5797;51.662;6.748;2023-04-01T05:41:41;9.90;;;6.13;;
11481;SDS011;5797;51.662;6.748;2023-04-01T05:44:10;8.77;;;5.50;;
11481;SDS011;5797;51.662;6.748;2023-04-01T05:46:39;9.47;;;5.80;;
11481;SDS011;5797;51.662;6.748;2023-04-01T05:49:18;10.20;;;5.53;;
11481;SDS011;5797;51.662;6.748;2023-04-01T05:51:47;9.27;;;5.93;;
11481;SDS011;5797;51.662;6.748;2023-04-01T05:54:15;10.43;;;5.70;;
11481;SDS011;5797;51.662;6.748;2023-04-01T05:56:46;9.80;;;6.23;;
11481;SDS011;5797;51.662;6.748;2023-04-01T05:59:14;8.97;;;5.37;;
11481;SDS011;5797;51.662;6.748;2023-04-01T06:01:43;13.67;;;6.10;;
11481;SDS011;5797;51.662;6.748;2023-04-01T06:04:13;8.27;;;5.43;;
11481;SDS011;5797;51.662;6.748;2023-04-01T06:06:43;10.60;;;5.63;;
11481;SDS011;5797;51.662;6.748;2023-04-01T06:09:13;9.13;;;5.20;;
11481;SDS011;5797;51.662;6.748;2023-04-01T06:11:54;9.57;;;5.63;;
11481;SDS011;5797;51.662;6.748;2023-04-01T06:14:32;8.97;;;5.20;;
11481;SDS011;5797;51.662;6.748;2023-04-01T06:17:09;8.93;;;5.27;;
11481;SDS011;5797;51.662;6.748;2023-04-01T06:19:46;9.53;;;5.63;;
11481;SDS011;5797;51.662;6.748;2023-04-01T06:22:33;10.87;;;5.30;;
11481;SDS011;5797;51.662;6.748;2023-04-01T06:25:18;9.10;;;5.20;;
11481;SDS011;5797;51.662;6.748;2023-04-01T06:28:34;7.57;;;5.07;;
11481;SDS011;5797;51.662;6.748;2023-04-01T06:31:12;10.40;;;5.37;;
11481;SDS011;5797;51.662;6.748;2023-04-01T06:33:52;9.57;;;4.43;;
11481;SDS011;5797;51.662;6.748;2023-04-01T06:36:39;7.73;;;4.87;;
11481;SDS011;5797;51.662;6.748;2023-04-01T06:39:30;6.33;;;4.03;;
11481;SDS011;5797;51.662;6.748;2023-04-01T06:45:34;8.30;;;4.87;;
11481;SDS011;5797;51.662;6.748;2023-04-01T06:48:31;8.00;;;4.47;;
11481;SDS011;5797;51.662;6.748;2023-04-01T06:51:19;6.87;;;4.27;;
11481;SDS011;5797;51.662;6.748;2023-04-01T06:54:14;6.03;;;4.20;;
11481;SDS011;5797;51.662;6.748;2023-04-01T06:57:05;6.60;;;4.50;;
11481;SDS011;5797;51.662;6.748;2023-04-01T06:59:41;6.40;;;4.50;;
11481;SDS011;5797;51.662;6.748;2023-04-01T07:02:15;7.63;;;4.07;;
11481;SDS011;5797;51.662;6.748;2023-04-01T07:04:50;5.93;;;4.40;;
11481;SDS011;5797;51.662;6.748;2023-04-01T07:07:24;6.03;;;3.90;;
11481;SDS011;5797;51.662;6.748;2023-04-01T07:10:02;6.57;;;3.97;;
11481;SDS011;5797;51.662;6.748;2023-04-01T07:12:35;4.97;;;3.90;;
11481;SDS011;5797;51.662;6.748;2023-04-01T07:15:27;5.00;;;3.73;;
11481;SDS011;5797;51.662;6.748;2023-04-01T07:18:00;5.07;;;3.60;;
11481;SDS011;5797;51.662;6.748;2023-04-01T07:20:32;6.07;;;4.17;;
11481;SDS011;5797;51.662;6.748;2023-04-01T07:23:04;7.20;;;4.03;;
11481;SDS011;5797;51.662;6.748;2023-04-01T07:25:54;5.03;;;3.73;;
11481;SDS011;5797;51.662;6.748;2023-04-01T07:28:42;6.37;;;3.97;;
11481;SDS011;5797;51.662;6.748;2023-04-01T07:31:32;6.60;;;4.00;;
11481;SDS011;5797;51.662;6.748;2023-04-01T07:34:16;7.03;;;3.90;;
11481;SDS011;5797;51.662;6.748;2023-04-01T07:36:48;5.87;;;4.20;;
11481;SDS011;5797;51.662;6.748;2023-04-01T07:39:25;10.00;;;4.53;;
11481;SDS011;5797;51.662;6.748;2023-04-01T07:42:14;5.50;;;3.83;;
11481;SDS011;5797;51.662;6.748;2023-04-01T07:44:45;7.53;;;4.60;;
11481;SDS011;5797;51.662;6.748;2023-04-01T07:47:25;8.63;;;4.70;;
11481;SDS011;5797;51.662;6.748;2023-04-01T07:50:05;6.27;;;4.20;;
11481;SDS011;5797;51.662;6.748;2023-04-01T07:52:41;5.73;;;3.73;;
11481;SDS011;5797;51.662;6.748;2023-04-01T07:55:23;10.23;;;4.70;;
11481;SDS011;5797;51.662;6.748;2023-04-01T07:57:57;8.30;;;5.23;;
11481;SDS011;5797;51.662;6.748;2023-04-01T08:00:33;7.83;;;4.73;;
11481;SDS011;5797;51.662;6.748;2023-04-01T08:03:27;8.27;;;5.07;;
11481;SDS011;5797;51.662;6.748;2023-04-01T08:06:07;9.97;;;5.47;;
11481;SDS011;5797;51.662;6.748;2023-04-01T08:08:45;8.40;;;5.20;;
11481;SDS011;5797;51.662;6.748;2023-04-01T08:11:56;9.73;;;5.93;;
11481;SDS011;5797;51.662;6.748;2023-04-01T08:14:52;10.53;;;5.77;;
11481;SDS011;5797;51.662;6.748;2023-04-01T08:17:52;11.00;;;6.27;;
11481;SDS011;5797;51.662;6.748;2023-04-01T08:20:28;10.77;;;6.33;;
11481;SDS011;5797;51.662;6.748;2023-04-01T08:23:03;14.57;;;6.53;;
11481;SDS011;5797;51.662;6.748;2023-04-01T08:25:39;15.23;;;6.70;;
11481;SDS011;5797;51.662;6.748;2023-04-01T08:28:11;12.00;;;6.30;;
11481;SDS011;5797;51.662;6.748;2023-04-01T08:30:43;10.27;;;5.80;;
11481;SDS011;5797;51.662;6.748;2023-04-01T08:33:19;11.23;;;5.67;;
11481;SDS011;5797;51.662;6.748;2023-04-01T08:35:55;11.87;;;5.67;;
11481;SDS011;5797;51.662;6.748;2023-04-01T08:38:28;8.73;;;5.13;;
11481;SDS011;5797;51.662;6.748;2023-04-01T08:44:34;10.17;;;5.30;;
11481;SDS011;5797;51.662;6.748;2023-04-01T08:47:24;11.20;;;5.37;;
11481;SDS011;5797;51.662;6.748;2023-04-01T08:50:36;9.10;;;4.63;;
11481;SDS011;5797;51.662;6.748;2023-04-01T08:53:43;9.53;;;5.17;;
11481;SDS011;5797;51.662;6.748;2023-04-01T08:56:20;11.07;;;5.90;;
11481;SDS011;5797;51.662;6.748;2023-04-01T08:58:55;8.50;;;5.10;;
11481;SDS011;5797;51.662;6.748;2023-04-01T09:01:39;10.67;;;5.83;;
11481;SDS011;5797;51.662;6.748;2023-04-01T09:04:41;10.17;;;5.37;;
11481;SDS011;5797;51.662;6.748;2023-04-01T09:07:32;8.40;;;4.93;;
11481;SDS011;5797;51.662;6.748;2023-04-01T09:10:11;9.77;;;4.60;;
11481;SDS011;5797;51.662;6.748;2023-04-01T09:15:50;7.20;;;4.53;;
11481;SDS011;5797;51.662;6.748;2023-04-01T09:18:32;9.90;;;4.73;;
11481;SDS011;5797;51.662;6.748;2023-04-01T09:27:11;8.70;;;4.53;;
11481;SDS011;5797;51.662;6.748;2023-04-01T09:32:52;11.30;;;4.47;;
11481;SDS011;5797;51.662;6.748;2023-04-01T09:35:33;6.40;;;3.93;;
11481;SDS011;5797;51.662;6.748;2023-04-01T09:38:13;6.93;;;4.20;;
11481;SDS011;5797;51.662;6.748;2023-04-01T09:40:54;6.70;;;4.20;;
11481;SDS011;5797;51.662;6.748;2023-04-01T09:43:46;6.40;;;3.83;;
11481;SDS011;5797;51.662;6.748;2023-04-01T09:46:26;9.00;;;3.87;;
11481;SDS011;5797;51.662;6.748;2023-04-01T09:49:21;9.17;;;4.40;;
11481;SDS011;5797;51.662;6.748;2023-04-01T09:52:02;6.03;;;3.63;;
11481;SDS011;5797;51.662;6.748;2023-04-01T09:54:39;6.57;;;3.53;;
11481;SDS011;5797;51.662;6.748;2023-04-01T09:57:39;5.97;;;3.50;;
11481;SDS011;5797;51.662;6.748;2023-04-01T10:00:50;7.77;;;3.47;;
11481;SDS011;5797;51.662;6.748;2023-04-01T10:03:31;8.73;;;3.67;;
11481;SDS011;5797;51.662;6.748;2023-04-01T10:06:42;5.47;;;3.10;;
11481;SDS011;5797;51.662;6.748;2023-04-01T10:09:23;5.50;;;3.17;;
11481;SDS011;5797;51.662;6.748;2023-04-01T10:15:18;8.03;;;3.50;;
11481;SDS011;5797;51.662;6.748;2023-04-01T10:18:04;7.23;;;3.50;;
11481;SDS011;5797;51.662;6.748;2023-04-01T10:21:07;6.87;;;3.70;;
11481;SDS011;5797;51.662;6.748;2023-04-01T10:23:54;4.90;;;2.90;;
11481;SDS011;5797;51.662;6.748;2023-04-01T10:26:37;6.70;;;3.50;;
11481;SDS011;5797;51.662;6.748;2023-04-01T10:29:55;5.97;;;3.30;;
11481;SDS011;5797;51.662;6.748;2023-04-01T10:35:55;3.63;;;2.40;;
11481;SDS011;5797;51.662;6.748;2023-04-01T10:39:05;5.17;;;2.80;;
11481;SDS011;5797;51.662;6.748;2023-04-01T10:42:06;5.67;;;2.73;;
11481;SDS011;5797;51.662;6.748;2023-04-01T10:48:23;5.87;;;3.53;;
11481;SDS011;5797;51.662;6.748;2023-04-01T10:51:12;4.63;;;2.93;;
11481;SDS011;5797;51.662;6.748;2023-04-01T10:53:46;4.83;;;3.27;;
11481;SDS011;5797;51.662;6.748;2023-04-01T10:56:33;5.80;;;3.60;;
11481;SDS011;5797;51.662;6.748;2023-04-01T10:59:28;4.77;;;2.90;;
11481;SDS011;5797;51.662;6.748;2023-04-01T11:03:06;5.57;;;3.10;;
11481;SDS011;5797;51.662;6.748;2023-04-01T11:06:38;6.20;;;3.33;;
11481;SDS011;5797;51.662;6.748;2023-04-01T11:16:12;6.07;;;3.37;;
11481;SDS011;5797;51.662;6.748;2023-04-01T11:25:19;6.40;;;3.90;;
11481;SDS011;5797;51.662;6.748;2023-04-01T11:28:27;6.73;;;3.90;;
11481;SDS011;5797;51.662;6.748;2023-04-01T11:31:11;5.40;;;3.40;;
11481;SDS011;5797;51.662;6.748;2023-04-01T11:33:52;5.73;;;3.63;;
11481;SDS011;5797;51.662;6.748;2023-04-01T11:36:25;6.23;;;3.57;;
11481;SDS011;5797;51.662;6.748;2023-04-01T11:39:08;8.90;;;4.60;;
11481;SDS011;5797;51.662;6.748;2023-04-01T11:42:01;8.60;;;5.00;;
11481;SDS011;5797;51.662;6.748;2023-04-01T11:44:54;7.87;;;5.17;;
11481;SDS011;5797;51.662;6.748;2023-04-01T11:47:45;7.53;;;4.40;;
11481;SDS011;5797;51.662;6.748;2023-04-01T11:50:22;9.00;;;4.50;;
11481;SDS011;5797;51.662;6.748;2023-04-01T11:55:56;7.43;;;5.03;;
11481;SDS011;5797;51.662;6.748;2023-04-01T11:58:41;7.43;;;5.20;;
11481;SDS011;5797;51.662;6.748;2023-04-01T12:01:24;7.33;;;4.83;;
11481;SDS011;5797;51.662;6.748;2023-04-01T12:04:00;8.63;;;5.03;;
11481;SDS011;5797;51.662;6.748;2023-04-01T12:06:48;9.53;;;4.83;;
11481;SDS011;5797;51.662;6.748;2023-04-01T12:09:21;9.93;;;5.37;;
11481;SDS011;5797;51.662;6.748;2023-04-01T12:11:57;7.73;;;4.30;;
11481;SDS011;5797;51.662;6.748;2023-04-01T12:14:36;5.67;;;4.40;;
11481;SDS011;5797;51.662;6.748;2023-04-01T12:17:12;6.40;;;4.67;;
11481;SDS011;5797;51.662;6.748;2023-04-01T12:19:49;7.83;;;4.03;;
11481;SDS011;5797;51.662;6.748;2023-04-01T12:22:25;6.57;;;4.23;;
11481;SDS011;5797;51.662;6.748;2023-04-01T12:25:14;9.10;;;4.97;;
11481;SDS011;5797;51.662;6.748;2023-04-01T12:27:54;9.47;;;4.73;;
11481;SDS011;5797;51.662;6.748;2023-04-01T12:30:37;6.87;;;4.47;;
11481;SDS011;5797;51.662;6.748;2023-04-01T12:36:08;8.50;;;4.67;;
11481;SDS011;5797;51.662;6.748;2023-04-01T12:38:43;8.33;;;4.20;;
11481;SDS011;5797;51.662;6.748;2023-04-01T12:41:27;7.37;;;4.03;;
11481;SDS011;5797;51.662;6.748;2023-04-01T12:44:04;8.00;;;4.27;;
11481;SDS011;5797;51.662;6.748;2023-04-01T12:46:51;6.50;;;4.03;;
11481;SDS011;5797;51.662;6.748;2023-04-01T12:49:32;7.77;;;4.27;;
11481;SDS011;5797;51.662;6.748;2023-04-01T12:52:09;6.97;;;4.63;;
11481;SDS011;5797;51.662;6.748;2023-04-01T12:54:44;8.60;;;4.53;;
11481;SDS011;5797;51.662;6.748;2023-04-01T12:57:44;10.30;;;4.70;;
11481;SDS011;5797;51.662;6.748;2023-04-01T13:00:41;8.67;;;4.70;;
11481;SDS011;5797;51.662;6.748;2023-04-01T13:03:28;10.30;;;4.97;;
11481;SDS011;5797;51.662;6.748;2023-04-01T13:08:56;8.13;;;4.73;;
11481;SDS011;5797;51.662;6.748;2023-04-01T13:11:35;11.20;;;6.00;;
11481;SDS011;5797;51.662;6.748;2023-04-01T13:14:30;10.33;;;5.50;;
11481;SDS011;5797;51.662;6.748;2023-04-01T13:17:21;10.37;;;5.80;;
11481;SDS011;5797;51.662;6.748;2023-04-01T13:19:52;7.40;;;4.43;;
11481;SDS011;5797;51.662;6.748;2023-04-01T13:22:33;6.97;;;4.53;;
11481;SDS011;5797;51.662;6.748;2023-04-01T13:25:13;9.03;;;4.30;;
11481;SDS011;5797;51.662;6.748;2023-04-01T13:27:46;6.57;;;4.47;;
11481;SDS011;5797;51.662;6.748;2023-04-01T13:30:22;10.47;;;5.07;;
11481;SDS011;5797;51.662;6.748;2023-04-01T13:32:57;9.13;;;4.60;;
11481;SDS011;5797;51.662;6.748;2023-04-01T13:35:34;7.83;;;4.50;;
11481;SDS011;5797;51.662;6.748;2023-04-01T13:38:14;7.10;;;4.13;;
11481;SDS011;5797;51.662;6.748;2023-04-01T13:40:55;7.17;;;4.17;;
11481;SDS011;5797;51.662;6.748;2023-04-01T13:43:30;7.77;;;4.67;;
11481;SDS011;5797;51.662;6.748;2023-04-01T13:49:09;6.83;;;4.50;;
11481;SDS011;5797;51.662;6.748;2023-04-01T13:51:49;9.57;;;5.00;;
11481;SDS011;5797;51.662;6.748;2023-04-01T13:54:29;9.00;;;5.17;;
11481;SDS011;5797;51.662;6.748;2023-04-01T13:57:17;9.50;;;5.73;;
11481;SDS011;5797;51.662;6.748;2023-04-01T14:02:47;7.57;;;5.23;;
11481;SDS011;5797;51.662;6.748;2023-04-01T14:05:27;10.93;;;5.60;;
11481;SDS011;5797;51.662;6.748;2023-04-01T14:08:13;9.10;;;5.43;;
11481;SDS011;5797;51.662;6.748;2023-04-01T14:10:47;11.20;;;5.33;;
11481;SDS011;5797;51.662;6.748;2023-04-01T14:13:26;7.73;;;5.40;;
11481;SDS011;5797;51.662;6.748;2023-04-01T14:16:10;10.77;;;5.47;;
11481;SDS011;5797;51.662;6.748;2023-04-01T14:21:42;11.63;;;6.17;;
11481;SDS011;5797;51.662;6.748;2023-04-01T14:24:20;10.60;;;5.80;;
11481;SDS011;5797;51.662;6.748;2023-04-01T14:27:09;7.67;;;5.13;;
11481;SDS011;5797;51.662;6.748;2023-04-01T14:29:53;10.43;;;5.20;;
11481;SDS011;5797;51.662;6.748;2023-04-01T14:32:34;10.00;;;6.27;;
11481;SDS011;5797;51.662;6.748;2023-04-01T14:35:17;5.67;;;3.70;;
11481;SDS011;5797;51.662;6.748;2023-04-01T14:38:00;12.67;;;5.90;;
11481;SDS011;5797;51.662;6.748;2023-04-01T14:40:52;9.83;;;5.80;;
11481;SDS011;5797;51.662;6.748;2023-04-01T14:46:22;9.47;;;5.97;;
11481;SDS011;5797;51.662;6.748;2023-04-01T14:48:56;10.03;;;5.40;;
11481;SDS011;5797;51.662;6.748;2023-04-01T14:51:28;8.27;;;4.90;;
11481;SDS011;5797;51.662;6.748;2023-04-01T14:54:02;8.07;;;4.70;;
11481;SDS011;5797;51.662;6.748;2023-04-01T14:56:37;8.43;;;4.07;;
11481;SDS011;5797;51.662;6.748;2023-04-01T14:59:10;7.17;;;4.07;;
11481;SDS011;5797;51.662;6.748;2023-04-01T15:01:46;5.30;;;4.03;;
11481;SDS011;5797;51.662;6.748;2023-04-01T15:04:21;5.37;;;4.17;;
11481;SDS011;5797;51.662;6.748;2023-04-01T15:07:02;5.60;;;4.43;;
11481;SDS011;5797;51.662;6.748;2023-04-01T15:09:40;6.07;;;4.33;;
11481;SDS011;5797;51.662;6.748;2023-04-01T15:12:15;7.47;;;4.23;;
11481;SDS011;5797;51.662;6.748;2023-04-01T15:14:55;5.73;;;4.10;;
11481;SDS011;5797;51.662;6.748;2023-04-01T15:17:36;5.70;;;4.10;;
11481;SDS011;5797;51.662;6.748;2023-04-01T15:20:16;4.60;;;3.00;;
11481;SDS011;5797;51.662;6.748;2023-04-01T15:22:57;5.03;;;3.23;;
11481;SDS011;5797;51.662;6.748;2023-04-01T15:25:33;5.50;;;3.77;;
11481;SDS011;5797;51.662;6.748;2023-04-01T15:28:11;4.87;;;3.43;;
11481;SDS011;5797;51.662;6.748;2023-04-01T15:30:48;4.00;;;3.07;;
11481;SDS011;5797;51.662;6.748;2023-04-01T15:33:28;5.10;;;3.70;;
11481;SDS011;5797;51.662;6.748;2023-04-01T15:36:07;7.07;;;3.37;;
11481;SDS011;5797;51.662;6.748;2023-04-01T15:38:42;5.47;;;3.67;;
11481;SDS011;5797;51.662;6.748;2023-04-01T15:41:15;6.67;;;3.70;;
11481;SDS011;5797;51.662;6.748;2023-04-01T15:43:45;5.50;;;3.67;;
11481;SDS011;5797;51.662;6.748;2023-04-01T15:46:28;6.77;;;3.87;;
11481;SDS011;5797;51.662;6.748;2023-04-01T15:49:07;5.23;;;3.50;;
11481;SDS011;5797;51.662;6.748;2023-04-01T15:51:56;7.97;;;4.10;;
11481;SDS011;5797;51.662;6.748;2023-04-01T15:54:47;6.37;;;3.13;;
11481;SDS011;5797;51.662;6.748;2023-04-01T15:57:27;4.60;;;3.70;;
11481;SDS011;5797;51.662;6.748;2023-04-01T16:00:10;5.90;;;3.67;;
11481;SDS011;5797;51.662;6.748;2023-04-01T16:02:46;5.80;;;3.53;;
11481;SDS011;5797;51.662;6.748;2023-04-01T16:05:27;6.63;;;4.10;;
11481;SDS011;5797;51.662;6.748;2023-04-01T16:08:07;6.50;;;3.73;;
11481;SDS011;5797;51.662;6.748;2023-04-01T16:10:49;7.33;;;4.90;;
11481;SDS011;5797;51.662;6.748;2023-04-01T16:13:33;6.83;;;4.43;;
11481;SDS011;5797;51.662;6.748;2023-04-01T16:16:14;7.37;;;4.53;;
11481;SDS011;5797;51.662;6.748;2023-04-01T16:21:42;6.30;;;4.13;;
11481;SDS011;5797;51.662;6.748;2023-04-01T16:24:15;5.33;;;3.63;;
11481;SDS011;5797;51.662;6.748;2023-04-01T16:26:48;6.50;;;3.83;;
11481;SDS011;5797;51.662;6.748;2023-04-01T16:29:22;5.50;;;3.73;;
11481;SDS011;5797;51.662;6.748;2023-04-01T16:31:55;5.13;;;3.27;;
11481;SDS011;5797;51.662;6.748;2023-04-01T16:34:29;3.57;;;3.07;;
11481;SDS011;5797;51.662;6.748;2023-04-01T16:37:00;5.70;;;3.30;;
11481;SDS011;5797;51.662;6.748;2023-04-01T16:39:33;4.83;;;3.27;;
11481;SDS011;5797;51.662;6.748;2023-04-01T16:42:10;3.70;;;3.00;;
11481;SDS011;5797;51.662;6.748;2023-04-01T16:44:47;4.57;;;3.40;;
11481;SDS011;5797;51.662;6.748;2023-04-01T16:47:19;5.03;;;3.37;;
11481;SDS011;5797;51.662;6.748;2023-04-01T16:49:50;4.50;;;3.27;;
11481;SDS011;5797;51.662;6.748;2023-04-01T16:52:29;3.43;;;3.00;;
11481;SDS011;5797;51.662;6.748;2023-04-01T16:55:03;4.47;;;2.77;;
11481;SDS011;5797;51.662;6.748;2023-04-01T16:57:43;4.60;;;3.53;;
11481;SDS011;5797;51.662;6.748;2023-04-01T17:00:16;4.63;;;3.23;;
11481;SDS011;5797;51.662;6.748;2023-04-01T17:02:52;5.37;;;3.33;;
11481;SDS011;5797;51.662;6.748;2023-04-01T17:05:46;6.07;;;3.30;;
11481;SDS011;5797;51.662;6.748;2023-04-01T17:08:23;3.67;;;3.00;;
11481;SDS011;5797;51.662;6.748;2023-04-01T17:10:59;5.03;;;3.30;;